Terminal Aerodrome Forecast
Issued by NWS Flagstaff, AZ

Home | Current Version | Previous Version | Text Only | Print | Product List | Glossary On
Versions: 1 2 3 4 5 6 7 8 9 10 11 12 13 14
000
FTUS45 KFGZ 010531
TAFINW
TAF
KINW 010531Z 0106/0206 VRB06KT P6SM BKN090 BKN200
     FM011900 VRB06KT P6SM VCSH SCT080 BKN200 PROB30 0120/0201 4SM
      TSRA BKN050CB=

USA.gov is the U.S. government's official web portal to all federal, state and local government web resources and services.